DAUG/GHA METAR and TAF weather

Enter ICAO airport designator
Station Type Date Time Source
DAUG METAR 2019/04/19 22:00 UTC NOAA

DAUG 192200Z 00000KT 8000 NSC 29/M05 Q1006


Station Type Date Time Source
DAUG Decoded METAR 2019/04/19 22:00 UTC NOAA

Ghardaia, Algeria (DAUG) 32-23N 003-49E 450M
Apr 19, 2019 - 06:00 PM EDT / 2019.04.19 2200 UTC
Wind: Calm:0
Visibility: 4 mile(s):0
Temperature: 84 F (29 C)
Dew Point: 23 F (-5 C)
Relative Humidity: 10%
Pressure (altimeter): 29.71 in. Hg (1006 hPa)
ob: DAUG 192200Z 00000KT 8000 NSC 29/M05 Q1006
cycle: 22

Station Type Date Time Source
DAUG TAF 2019/04/19 18:33 UTC NOAA

TAF DAUG 191700Z 1918/2018 20020KT 6000 NSC
TEMPO 1918/1923 18020G30KT 2000 DRSA
BECMG 1922/1924 VRB02KT
BECMG 2009/2012 05010KT

Example: see airport list